sensor_id;sensor_type;location;lat;lon;timestamp;temperature;humidity
15596;DHT22;7898;48.658;9.068;2022-12-18T00:02:02;-11.60;99.90
15596;DHT22;7898;48.658;9.068;2022-12-18T00:04:29;-11.70;99.90
15596;DHT22;7898;48.658;9.068;2022-12-18T00:06:57;-11.70;99.90
15596;DHT22;7898;48.658;9.068;2022-12-18T00:09:24;-11.70;99.90
15596;DHT22;7898;48.658;9.068;2022-12-18T00:11:51;-11.70;99.90
15596;DHT22;7898;48.658;9.068;2022-12-18T00:14:18;-11.80;99.90
15596;DHT22;7898;48.658;9.068;2022-12-18T00:16:46;-11.70;99.90
15596;DHT22;7898;48.658;9.068;2022-12-18T00:19:14;-11.70;99.90
15596;DHT22;7898;48.658;9.068;2022-12-18T00:21:41;-11.70;99.90
15596;DHT22;7898;48.658;9.068;2022-12-18T00:24:10;-11.70;99.90
15596;DHT22;7898;48.658;9.068;2022-12-18T00:26:38;-11.90;99.90
15596;DHT22;7898;48.658;9.068;2022-12-18T00:29:09;-11.90;99.90
15596;DHT22;7898;48.658;9.068;2022-12-18T00:31:37;-11.90;99.90
15596;DHT22;7898;48.658;9.068;2022-12-18T00:34:04;-12.00;99.90
15596;DHT22;7898;48.658;9.068;2022-12-18T00:36:33;-12.00;99.90
15596;DHT22;7898;48.658;9.068;2022-12-18T00:39:02;-12.00;99.90
15596;DHT22;7898;48.658;9.068;2022-12-18T00:41:30;-11.90;99.90
15596;DHT22;7898;48.658;9.068;2022-12-18T00:44:16;-11.90;99.90
15596;DHT22;7898;48.658;9.068;2022-12-18T00:46:44;-11.80;99.90
15596;DHT22;7898;48.658;9.068;2022-12-18T00:49:15;-11.80;99.90
15596;DHT22;7898;48.658;9.068;2022-12-18T00:51:42;-11.90;99.90
15596;DHT22;7898;48.658;9.068;2022-12-18T00:54:09;-12.10;99.90
15596;DHT22;7898;48.658;9.068;2022-12-18T00:56:38;-12.10;99.90
15596;DHT22;7898;48.658;9.068;2022-12-18T00:59:06;-12.20;99.90
15596;DHT22;7898;48.658;9.068;2022-12-18T01:01:33;-12.20;99.90
15596;DHT22;7898;48.658;9.068;2022-12-18T01:04:01;-12.30;99.90
15596;DHT22;7898;48.658;9.068;2022-12-18T01:06:28;-12.30;99.90
15596;DHT22;7898;48.658;9.068;2022-12-18T01:08:55;-12.40;99.90
15596;DHT22;7898;48.658;9.068;2022-12-18T01:11:22;-12.30;99.90
15596;DHT22;7898;48.658;9.068;2022-12-18T01:13:51;-12.30;99.90
15596;DHT22;7898;48.658;9.068;2022-12-18T01:16:18;-12.20;99.90
15596;DHT22;7898;48.658;9.068;2022-12-18T01:18:45;-12.20;99.90
15596;DHT22;7898;48.658;9.068;2022-12-18T01:21:14;-12.20;99.90
15596;DHT22;7898;48.658;9.068;2022-12-18T01:23:41;-12.30;99.90
15596;DHT22;7898;48.658;9.068;2022-12-18T01:26:13;-12.30;99.90
15596;DHT22;7898;48.658;9.068;2022-12-18T01:28:40;-12.40;99.90
15596;DHT22;7898;48.658;9.068;2022-12-18T01:31:18;-12.40;99.90
15596;DHT22;7898;48.658;9.068;2022-12-18T01:33:45;-12.50;99.90
15596;DHT22;7898;48.658;9.068;2022-12-18T01:36:16;-12.50;99.90
15596;DHT22;7898;48.658;9.068;2022-12-18T01:38:43;-12.40;99.90
15596;DHT22;7898;48.658;9.068;2022-12-18T01:41:10;-12.40;99.90
15596;DHT22;7898;48.658;9.068;2022-12-18T01:43:42;-12.50;99.90
15596;DHT22;7898;48.658;9.068;2022-12-18T01:46:09;-12.60;99.90
15596;DHT22;7898;48.658;9.068;2022-12-18T01:48:38;-12.60;99.90
15596;DHT22;7898;48.658;9.068;2022-12-18T01:51:06;-12.70;99.90
15596;DHT22;7898;48.658;9.068;2022-12-18T01:53:34;-12.60;99.90
15596;DHT22;7898;48.658;9.068;2022-12-18T01:56:02;-12.50;99.90
15596;DHT22;7898;48.658;9.068;2022-12-18T01:58:37;-12.40;99.90
15596;DHT22;7898;48.658;9.068;2022-12-18T02:01:06;-12.20;99.90
15596;DHT22;7898;48.658;9.068;2022-12-18T02:03:33;-12.10;99.90
15596;DHT22;7898;48.658;9.068;2022-12-18T02:06:07;-12.10;99.90
15596;DHT22;7898;48.658;9.068;2022-12-18T02:08:41;-12.20;99.90
15596;DHT22;7898;48.658;9.068;2022-12-18T02:11:14;-12.30;99.90
15596;DHT22;7898;48.658;9.068;2022-12-18T02:13:50;-12.30;99.90
15596;DHT22;7898;48.658;9.068;2022-12-18T02:16:24;-12.30;99.90
15596;DHT22;7898;48.658;9.068;2022-12-18T02:18:57;-12.30;99.90
15596;DHT22;7898;48.658;9.068;2022-12-18T02:21:34;-12.20;99.90
15596;DHT22;7898;48.658;9.068;2022-12-18T02:24:17;-12.20;99.90
15596;DHT22;7898;48.658;9.068;2022-12-18T02:26:53;-12.20;99.90
15596;DHT22;7898;48.658;9.068;2022-12-18T02:29:23;-12.10;99.90
15596;DHT22;7898;48.658;9.068;2022-12-18T02:31:54;-12.10;99.90
15596;DHT22;7898;48.658;9.068;2022-12-18T02:34:32;-12.10;99.90
15596;DHT22;7898;48.658;9.068;2022-12-18T02:37:02;-12.10;99.90
15596;DHT22;7898;48.658;9.068;2022-12-18T02:39:32;-12.10;99.90
15596;DHT22;7898;48.658;9.068;2022-12-18T02:42:01;-12.00;99.90
15596;DHT22;7898;48.658;9.068;2022-12-18T02:44:33;-12.10;99.90
15596;DHT22;7898;48.658;9.068;2022-12-18T02:47:01;-12.10;99.90
15596;DHT22;7898;48.658;9.068;2022-12-18T02:49:34;-12.20;99.90
15596;DHT22;7898;48.658;9.068;2022-12-18T02:52:10;-12.30;99.90
15596;DHT22;7898;48.658;9.068;2022-12-18T02:54:52;-12.30;99.90
15596;DHT22;7898;48.658;9.068;2022-12-18T02:57:28;-12.20;99.90
15596;DHT22;7898;48.658;9.068;2022-12-18T03:00:00;-12.20;99.90
15596;DHT22;7898;48.658;9.068;2022-12-18T03:02:33;-12.20;99.90
15596;DHT22;7898;48.658;9.068;2022-12-18T03:05:10;-12.10;99.90
15596;DHT22;7898;48.658;9.068;2022-12-18T03:07:42;-12.10;99.90
15596;DHT22;7898;48.658;9.068;2022-12-18T03:10:14;-12.20;99.90
15596;DHT22;7898;48.658;9.068;2022-12-18T03:12:47;-12.20;99.90
15596;DHT22;7898;48.658;9.068;2022-12-18T03:15:19;-12.20;99.90
15596;DHT22;7898;48.658;9.068;2022-12-18T03:17:51;-12.20;99.90
15596;DHT22;7898;48.658;9.068;2022-12-18T03:20:21;-12.20;99.90
15596;DHT22;7898;48.658;9.068;2022-12-18T03:22:52;-12.10;99.90
15596;DHT22;7898;48.658;9.068;2022-12-18T03:25:21;-12.10;99.90
15596;DHT22;7898;48.658;9.068;2022-12-18T03:27:54;-12.20;99.90
15596;DHT22;7898;48.658;9.068;2022-12-18T03:30:23;-12.20;99.90
15596;DHT22;7898;48.658;9.068;2022-12-18T03:32:56;-12.20;99.90
15596;DHT22;7898;48.658;9.068;2022-12-18T03:35:29;-12.20;99.90
15596;DHT22;7898;48.658;9.068;2022-12-18T03:37:57;-12.10;99.90
15596;DHT22;7898;48.658;9.068;2022-12-18T03:40:29;-12.10;99.90
15596;DHT22;7898;48.658;9.068;2022-12-18T03:43:02;-12.10;99.90
15596;DHT22;7898;48.658;9.068;2022-12-18T03:45:34;-12.10;99.90
15596;DHT22;7898;48.658;9.068;2022-12-18T03:48:06;-12.20;99.90
15596;DHT22;7898;48.658;9.068;2022-12-18T03:50:40;-12.20;99.90
15596;DHT22;7898;48.658;9.068;2022-12-18T03:53:23;-12.20;99.90
15596;DHT22;7898;48.658;9.068;2022-12-18T03:55:51;-12.20;99.90
15596;DHT22;7898;48.658;9.068;2022-12-18T03:58:22;-12.20;99.90
15596;DHT22;7898;48.658;9.068;2022-12-18T04:00:52;-12.30;99.90
15596;DHT22;7898;48.658;9.068;2022-12-18T04:03:20;-12.40;99.90
15596;DHT22;7898;48.658;9.068;2022-12-18T04:05:50;-12.50;99.90
15596;DHT22;7898;48.658;9.068;2022-12-18T04:08:18;-12.60;99.90
15596;DHT22;7898;48.658;9.068;2022-12-18T04:10:45;-12.60;99.90
15596;DHT22;7898;48.658;9.068;2022-12-18T04:13:12;-12.60;99.90
15596;DHT22;7898;48.658;9.068;2022-12-18T04:15:40;-12.50;99.90
15596;DHT22;7898;48.658;9.068;2022-12-18T04:18:07;-12.50;99.90
15596;DHT22;7898;48.658;9.068;2022-12-18T04:20:34;-12.50;99.90
15596;DHT22;7898;48.658;9.068;2022-12-18T04:23:01;-12.50;99.90
15596;DHT22;7898;48.658;9.068;2022-12-18T04:25:28;-12.50;99.90
15596;DHT22;7898;48.658;9.068;2022-12-18T04:27:55;-12.50;99.90
15596;DHT22;7898;48.658;9.068;2022-12-18T04:30:22;-12.40;99.90
15596;DHT22;7898;48.658;9.068;2022-12-18T04:32:50;-12.50;99.90
15596;DHT22;7898;48.658;9.068;2022-12-18T04:35:18;-12.40;99.90
15596;DHT22;7898;48.658;9.068;2022-12-18T04:37:44;-12.40;99.90
15596;DHT22;7898;48.658;9.068;2022-12-18T04:40:12;-12.40;99.90
15596;DHT22;7898;48.658;9.068;2022-12-18T04:42:39;-12.30;99.90
15596;DHT22;7898;48.658;9.068;2022-12-18T04:45:07;-12.30;99.90
15596;DHT22;7898;48.658;9.068;2022-12-18T04:47:34;-12.30;99.90
15596;DHT22;7898;48.658;9.068;2022-12-18T04:50:03;-12.40;99.90
15596;DHT22;7898;48.658;9.068;2022-12-18T04:52:30;-12.50;99.90
15596;DHT22;7898;48.658;9.068;2022-12-18T04:54:59;-12.50;99.90
15596;DHT22;7898;48.658;9.068;2022-12-18T04:57:26;-12.50;99.90
15596;DHT22;7898;48.658;9.068;2022-12-18T04:59:53;-12.50;99.90
15596;DHT22;7898;48.658;9.068;2022-12-18T05:02:20;-12.50;99.90
15596;DHT22;7898;48.658;9.068;2022-12-18T05:04:47;-12.50;99.90
15596;DHT22;7898;48.658;9.068;2022-12-18T05:07:15;-12.60;99.90
15596;DHT22;7898;48.658;9.068;2022-12-18T05:09:42;-12.60;99.90
15596;DHT22;7898;48.658;9.068;2022-12-18T05:12:09;-12.60;99.90
15596;DHT22;7898;48.658;9.068;2022-12-18T05:14:35;-12.70;99.90
15596;DHT22;7898;48.658;9.068;2022-12-18T05:17:02;-12.80;99.90
15596;DHT22;7898;48.658;9.068;2022-12-18T05:19:29;-12.80;99.90
15596;DHT22;7898;48.658;9.068;2022-12-18T05:21:56;-12.80;99.90
15596;DHT22;7898;48.658;9.068;2022-12-18T05:24:24;-12.80;99.90
15596;DHT22;7898;48.658;9.068;2022-12-18T05:26:51;-11.60;99.90
15596;DHT22;7898;48.658;9.068;2022-12-18T05:29:18;-12.90;99.90
15596;DHT22;7898;48.658;9.068;2022-12-18T05:31:45;-12.90;99.90
15596;DHT22;7898;48.658;9.068;2022-12-18T05:34:12;-12.90;99.90
15596;DHT22;7898;48.658;9.068;2022-12-18T05:36:39;-12.90;99.90
15596;DHT22;7898;48.658;9.068;2022-12-18T05:39:06;-13.00;99.90
15596;DHT22;7898;48.658;9.068;2022-12-18T05:41:34;-13.00;99.90
15596;DHT22;7898;48.658;9.068;2022-12-18T05:44:01;-13.00;99.90
15596;DHT22;7898;48.658;9.068;2022-12-18T05:46:28;-13.00;99.90
15596;DHT22;7898;48.658;9.068;2022-12-18T05:48:59;-13.00;99.90
15596;DHT22;7898;48.658;9.068;2022-12-18T05:51:26;-12.90;99.90
15596;DHT22;7898;48.658;9.068;2022-12-18T05:53:53;-12.90;99.90
15596;DHT22;7898;48.658;9.068;2022-12-18T05:56:21;-12.90;99.90
15596;DHT22;7898;48.658;9.068;2022-12-18T05:58:53;-12.90;99.90
15596;DHT22;7898;48.658;9.068;2022-12-18T06:01:22;-12.80;99.90
15596;DHT22;7898;48.658;9.068;2022-12-18T06:03:49;-12.80;99.90
15596;DHT22;7898;48.658;9.068;2022-12-18T06:06:18;-12.90;99.90
15596;DHT22;7898;48.658;9.068;2022-12-18T06:08:45;-13.00;99.90
15596;DHT22;7898;48.658;9.068;2022-12-18T06:11:13;-13.10;99.90
15596;DHT22;7898;48.658;9.068;2022-12-18T06:13:39;-13.10;99.90
15596;DHT22;7898;48.658;9.068;2022-12-18T06:16:08;-13.20;99.90
15596;DHT22;7898;48.658;9.068;2022-12-18T06:18:35;-13.30;99.90
15596;DHT22;7898;48.658;9.068;2022-12-18T06:21:07;-13.30;99.90
15596;DHT22;7898;48.658;9.068;2022-12-18T06:23:34;-13.30;99.90
15596;DHT22;7898;48.658;9.068;2022-12-18T06:26:04;-13.40;99.90
15596;DHT22;7898;48.658;9.068;2022-12-18T06:28:32;-13.30;99.90
15596;DHT22;7898;48.658;9.068;2022-12-18T06:30:58;-13.30;99.90
15596;DHT22;7898;48.658;9.068;2022-12-18T06:33:27;-13.30;99.90
15596;DHT22;7898;48.658;9.068;2022-12-18T06:35:54;-13.20;99.90
15596;DHT22;7898;48.658;9.068;2022-12-18T06:38:21;-13.10;99.90
15596;DHT22;7898;48.658;9.068;2022-12-18T06:40:48;-13.10;99.90
15596;DHT22;7898;48.658;9.068;2022-12-18T06:43:15;-13.10;99.90
15596;DHT22;7898;48.658;9.068;2022-12-18T06:45:42;-13.10;99.90
15596;DHT22;7898;48.658;9.068;2022-12-18T06:48:08;-13.00;99.90
15596;DHT22;7898;48.658;9.068;2022-12-18T06:50:37;-12.90;99.90
15596;DHT22;7898;48.658;9.068;2022-12-18T06:53:03;-12.90;99.90
15596;DHT22;7898;48.658;9.068;2022-12-18T06:55:30;-13.00;99.90
15596;DHT22;7898;48.658;9.068;2022-12-18T06:57:57;-13.10;99.90
15596;DHT22;7898;48.658;9.068;2022-12-18T07:00:24;-13.10;99.90
15596;DHT22;7898;48.658;9.068;2022-12-18T07:02:51;-13.10;99.90
15596;DHT22;7898;48.658;9.068;2022-12-18T07:05:18;-13.10;99.90
15596;DHT22;7898;48.658;9.068;2022-12-18T07:07:46;-13.10;99.90
15596;DHT22;7898;48.658;9.068;2022-12-18T07:10:13;-13.20;99.90
15596;DHT22;7898;48.658;9.068;2022-12-18T07:12:40;-13.20;99.90
15596;DHT22;7898;48.658;9.068;2022-12-18T07:15:07;-13.10;99.90
15596;DHT22;7898;48.658;9.068;2022-12-18T07:17:35;-13.20;99.90
15596;DHT22;7898;48.658;9.068;2022-12-18T07:20:02;-13.30;99.90
15596;DHT22;7898;48.658;9.068;2022-12-18T07:22:29;-13.10;99.90
15596;DHT22;7898;48.658;9.068;2022-12-18T07:24:57;-13.20;99.90
15596;DHT22;7898;48.658;9.068;2022-12-18T07:27:24;-13.20;99.90
15596;DHT22;7898;48.658;9.068;2022-12-18T07:29:51;-13.20;99.90
15596;DHT22;7898;48.658;9.068;2022-12-18T07:32:18;-13.10;99.90
15596;DHT22;7898;48.658;9.068;2022-12-18T07:34:44;-13.10;99.90
15596;DHT22;7898;48.658;9.068;2022-12-18T07:37:11;-13.00;99.90
15596;DHT22;7898;48.658;9.068;2022-12-18T07:39:38;-12.80;99.90
15596;DHT22;7898;48.658;9.068;2022-12-18T07:42:06;-12.60;99.90
15596;DHT22;7898;48.658;9.068;2022-12-18T07:44:51;-12.50;99.90
15596;DHT22;7898;48.658;9.068;2022-12-18T07:47:17;-12.20;99.90
15596;DHT22;7898;48.658;9.068;2022-12-18T07:49:44;-11.80;99.90
15596;DHT22;7898;48.658;9.068;2022-12-18T07:52:11;-11.30;99.90
15596;DHT22;7898;48.658;9.068;2022-12-18T07:54:39;-10.90;99.90
15596;DHT22;7898;48.658;9.068;2022-12-18T07:57:08;-10.40;99.90
15596;DHT22;7898;48.658;9.068;2022-12-18T07:59:35;-10.00;99.90
15596;DHT22;7898;48.658;9.068;2022-12-18T08:02:02;-9.50;99.90
15596;DHT22;7898;48.658;9.068;2022-12-18T08:04:29;-8.70;99.90
15596;DHT22;7898;48.658;9.068;2022-12-18T08:06:56;-8.20;99.90
15596;DHT22;7898;48.658;9.068;2022-12-18T08:09:22;-7.80;99.90
15596;DHT22;7898;48.658;9.068;2022-12-18T08:11:49;-7.40;99.90
15596;DHT22;7898;48.658;9.068;2022-12-18T08:14:18;-7.20;99.90
15596;DHT22;7898;48.658;9.068;2022-12-18T08:16:44;-6.90;99.90
15596;DHT22;7898;48.658;9.068;2022-12-18T08:19:11;-6.90;99.90
15596;DHT22;7898;48.658;9.068;2022-12-18T08:21:38;-7.00;99.90
15596;DHT22;7898;48.658;9.068;2022-12-18T08:24:09;-6.70;99.90
15596;DHT22;7898;48.658;9.068;2022-12-18T08:26:36;-6.50;99.90
15596;DHT22;7898;48.658;9.068;2022-12-18T08:29:06;-7.20;99.90
15596;DHT22;7898;48.658;9.068;2022-12-18T08:31:34;-5.90;99.90
15596;DHT22;7898;48.658;9.068;2022-12-18T08:34:01;-5.50;99.90
15596;DHT22;7898;48.658;9.068;2022-12-18T08:36:28;-5.20;99.90
15596;DHT22;7898;48.658;9.068;2022-12-18T08:38:56;-5.00;99.90
15596;DHT22;7898;48.658;9.068;2022-12-18T08:41:23;-4.60;99.90
15596;DHT22;7898;48.658;9.068;2022-12-18T08:43:50;-4.10;99.90
15596;DHT22;7898;48.658;9.068;2022-12-18T08:46:36;-3.70;99.90
15596;DHT22;7898;48.658;9.068;2022-12-18T08:49:05;-3.60;99.90
15596;DHT22;7898;48.658;9.068;2022-12-18T08:51:32;-4.00;99.90
15596;DHT22;7898;48.658;9.068;2022-12-18T08:53:59;-3.00;99.90
15596;DHT22;7898;48.658;9.068;2022-12-18T08:56:26;-2.70;99.90
15596;DHT22;7898;48.658;9.068;2022-12-18T08:58:53;-2.40;99.90
15596;DHT22;7898;48.658;9.068;2022-12-18T09:01:21;-2.40;99.90
15596;DHT22;7898;48.658;9.068;2022-12-18T09:03:50;-2.10;99.90
15596;DHT22;7898;48.658;9.068;2022-12-18T09:06:20;-2.20;99.90
15596;DHT22;7898;48.658;9.068;2022-12-18T09:08:47;-3.00;99.90
15596;DHT22;7898;48.658;9.068;2022-12-18T09:11:15;-2.60;99.90
15596;DHT22;7898;48.658;9.068;2022-12-18T09:13:45;-1.90;99.90
15596;DHT22;7898;48.658;9.068;2022-12-18T09:16:12;-1.40;99.90
15596;DHT22;7898;48.658;9.068;2022-12-18T09:18:38;-1.70;99.90
15596;DHT22;7898;48.658;9.068;2022-12-18T09:21:11;-2.10;99.90
15596;DHT22;7898;48.658;9.068;2022-12-18T09:23:39;-2.30;99.90
15596;DHT22;7898;48.658;9.068;2022-12-18T09:26:06;-2.60;99.90
15596;DHT22;7898;48.658;9.068;2022-12-18T09:28:34;-1.80;99.90
15596;DHT22;7898;48.658;9.068;2022-12-18T09:31:04;-1.30;99.90
15596;DHT22;7898;48.658;9.068;2022-12-18T09:33:32;-1.10;99.90
15596;DHT22;7898;48.658;9.068;2022-12-18T09:36:01;-1.60;99.90
15596;DHT22;7898;48.658;9.068;2022-12-18T09:38:29;-1.40;99.90
15596;DHT22;7898;48.658;9.068;2022-12-18T09:40:59;-1.40;99.90
15596;DHT22;7898;48.658;9.068;2022-12-18T09:43:29;-0.70;99.90
15596;DHT22;7898;48.658;9.068;2022-12-18T09:46:00;-0.40;99.90
15596;DHT22;7898;48.658;9.068;2022-12-18T09:48:31;-1.30;99.90
15596;DHT22;7898;48.658;9.068;2022-12-18T09:51:03;-1.80;99.90
15596;DHT22;7898;48.658;9.068;2022-12-18T09:53:36;-1.50;99.90
15596;DHT22;7898;48.658;9.068;2022-12-18T09:56:05;-0.80;99.90
15596;DHT22;7898;48.658;9.068;2022-12-18T09:58:37;-1.30;99.90
15596;DHT22;7898;48.658;9.068;2022-12-18T10:01:10;-1.30;99.90
15596;DHT22;7898;48.658;9.068;2022-12-18T10:03:36;-1.10;99.90
15596;DHT22;7898;48.658;9.068;2022-12-18T10:06:08;-1.20;99.90
15596;DHT22;7898;48.658;9.068;2022-12-18T10:08:43;-1.10;99.90
15596;DHT22;7898;48.658;9.068;2022-12-18T10:11:27;-0.80;99.90
15596;DHT22;7898;48.658;9.068;2022-12-18T10:14:00;-0.60;99.90
15596;DHT22;7898;48.658;9.068;2022-12-18T10:16:33;-0.40;99.90
15596;DHT22;7898;48.658;9.068;2022-12-18T10:19:16;-0.10;99.90
15596;DHT22;7898;48.658;9.068;2022-12-18T10:21:54;0.10;99.90
15596;DHT22;7898;48.658;9.068;2022-12-18T10:24:30;0.20;99.90
15596;DHT22;7898;48.658;9.068;2022-12-18T10:27:09;0.20;99.90
15596;DHT22;7898;48.658;9.068;2022-12-18T10:29:37;0.00;99.90
15596;DHT22;7898;48.658;9.068;2022-12-18T10:32:04;0.10;99.90
15596;DHT22;7898;48.658;9.068;2022-12-18T10:34:31;0.30;99.90
15596;DHT22;7898;48.658;9.068;2022-12-18T10:37:01;0.50;99.90
15596;DHT22;7898;48.658;9.068;2022-12-18T10:39:31;0.70;99.90
15596;DHT22;7898;48.658;9.068;2022-12-18T10:42:10;0.90;99.90
15596;DHT22;7898;48.658;9.068;2022-12-18T10:44:38;0.80;99.90
15596;DHT22;7898;48.658;9.068;2022-12-18T10:47:11;0.80;99.90
15596;DHT22;7898;48.658;9.068;2022-12-18T10:49:47;0.30;99.90
15596;DHT22;7898;48.658;9.068;2022-12-18T10:52:17;0.10;99.90
15596;DHT22;7898;48.658;9.068;2022-12-18T10:54:49;0.00;99.90
15596;DHT22;7898;48.658;9.068;2022-12-18T10:57:30;-0.10;99.90
15596;DHT22;7898;48.658;9.068;2022-12-18T10:59:59;0.00;99.90
15596;DHT22;7898;48.658;9.068;2022-12-18T11:02:33;0.10;99.90
15596;DHT22;7898;48.658;9.068;2022-12-18T11:05:01;0.20;99.90
15596;DHT22;7898;48.658;9.068;2022-12-18T11:07:47;0.50;99.90
15596;DHT22;7898;48.658;9.068;2022-12-18T11:10:19;0.30;99.90
15596;DHT22;7898;48.658;9.068;2022-12-18T11:12:46;0.30;99.90
15596;DHT22;7898;48.658;9.068;2022-12-18T11:15:20;0.40;99.90
15596;DHT22;7898;48.658;9.068;2022-12-18T11:17:48;0.50;99.90
15596;DHT22;7898;48.658;9.068;2022-12-18T11:20:30;0.70;99.90
15596;DHT22;7898;48.658;9.068;2022-12-18T11:22:59;0.50;99.90
15596;DHT22;7898;48.658;9.068;2022-12-18T11:25:29;0.50;99.90
15596;DHT22;7898;48.658;9.068;2022-12-18T11:27:58;0.40;99.90
15596;DHT22;7898;48.658;9.068;2022-12-18T11:30:27;0.20;99.90
15596;DHT22;7898;48.658;9.068;2022-12-18T11:33:04;0.10;99.90
15596;DHT22;7898;48.658;9.068;2022-12-18T11:35:39;0.40;99.90
15596;DHT22;7898;48.658;9.068;2022-12-18T11:38:17;0.60;99.90
15596;DHT22;7898;48.658;9.068;2022-12-18T11:40:52;0.60;99.90
15596;DHT22;7898;48.658;9.068;2022-12-18T11:43:25;0.80;99.90
15596;DHT22;7898;48.658;9.068;2022-12-18T11:45:55;0.90;99.90
15596;DHT22;7898;48.658;9.068;2022-12-18T11:48:26;0.70;99.90
15596;DHT22;7898;48.658;9.068;2022-12-18T11:50:55;0.80;99.90
15596;DHT22;7898;48.658;9.068;2022-12-18T11:53:24;0.60;99.90
15596;DHT22;7898;48.658;9.068;2022-12-18T11:56:03;0.90;99.90
15596;DHT22;7898;48.658;9.068;2022-12-18T11:58:42;0.80;99.90
15596;DHT22;7898;48.658;9.068;2022-12-18T12:01:19;0.80;99.90
15596;DHT22;7898;48.658;9.068;2022-12-18T12:04:08;0.70;99.90
15596;DHT22;7898;48.658;9.068;2022-12-18T12:06:45;0.70;99.90
15596;DHT22;7898;48.658;9.068;2022-12-18T12:09:17;0.80;99.90
15596;DHT22;7898;48.658;9.068;2022-12-18T12:12:02;-0.30;99.90
15596;DHT22;7898;48.658;9.068;2022-12-18T12:14:44;0.60;99.90
15596;DHT22;7898;48.658;9.068;2022-12-18T12:17:18;0.60;99.90
15596;DHT22;7898;48.658;9.068;2022-12-18T12:19:53;0.60;99.90
15596;DHT22;7898;48.658;9.068;2022-12-18T12:22:30;0.60;99.90
15596;DHT22;7898;48.658;9.068;2022-12-18T12:25:10;0.70;99.90
15596;DHT22;7898;48.658;9.068;2022-12-18T12:27:47;0.70;99.90
15596;DHT22;7898;48.658;9.068;2022-12-18T12:30:19;0.70;99.90
15596;DHT22;7898;48.658;9.068;2022-12-18T12:32:59;0.40;99.90
15596;DHT22;7898;48.658;9.068;2022-12-18T12:35:35;0.30;99.90
15596;DHT22;7898;48.658;9.068;2022-12-18T12:38:09;0.20;99.90
15596;DHT22;7898;48.658;9.068;2022-12-18T12:40:39;0.40;99.90
15596;DHT22;7898;48.658;9.068;2022-12-18T12:43:20;0.10;99.90
15596;DHT22;7898;48.658;9.068;2022-12-18T12:45:49;0.10;99.90
15596;DHT22;7898;48.658;9.068;2022-12-18T12:48:26;0.10;99.90
15596;DHT22;7898;48.658;9.068;2022-12-18T12:50:55;0.10;99.90
15596;DHT22;7898;48.658;9.068;2022-12-18T12:53:28;0.20;99.90
15596;DHT22;7898;48.658;9.068;2022-12-18T12:55:57;0.30;99.90
15596;DHT22;7898;48.658;9.068;2022-12-18T12:58:31;0.30;99.90
15596;DHT22;7898;48.658;9.068;2022-12-18T13:01:09;0.10;99.90
15596;DHT22;7898;48.658;9.068;2022-12-18T13:03:46;0.10;99.90
15596;DHT22;7898;48.658;9.068;2022-12-18T13:06:23;-0.10;99.90
15596;DHT22;7898;48.658;9.068;2022-12-18T13:08:54;0.00;99.90
15596;DHT22;7898;48.658;9.068;2022-12-18T13:11:30;0.10;99.90
15596;DHT22;7898;48.658;9.068;2022-12-18T13:14:26;0.40;99.90
15596;DHT22;7898;48.658;9.068;2022-12-18T13:20:11;0.00;99.90
15596;DHT22;7898;48.658;9.068;2022-12-18T13:22:42;-0.20;99.90
15596;DHT22;7898;48.658;9.068;2022-12-18T13:25:32;-0.20;99.90
15596;DHT22;7898;48.658;9.068;2022-12-18T13:28:10;-0.20;99.90
15596;DHT22;7898;48.658;9.068;2022-12-18T13:30:54;-0.20;99.90
15596;DHT22;7898;48.658;9.068;2022-12-18T13:33:44;-0.20;99.90
15596;DHT22;7898;48.658;9.068;2022-12-18T13:36:25;-0.30;99.90
15596;DHT22;7898;48.658;9.068;2022-12-18T13:39:11;-0.40;99.90
15596;DHT22;7898;48.658;9.068;2022-12-18T13:41:43;-0.60;99.90
15596;DHT22;7898;48.658;9.068;2022-12-18T13:44:12;-0.50;99.90
15596;DHT22;7898;48.658;9.068;2022-12-18T13:46:44;-0.50;99.90
15596;DHT22;7898;48.658;9.068;2022-12-18T13:49:22;-0.60;99.90
15596;DHT22;7898;48.658;9.068;2022-12-18T13:51:51;-0.50;99.90
15596;DHT22;7898;48.658;9.068;2022-12-18T13:54:19;-0.50;99.90
15596;DHT22;7898;48.658;9.068;2022-12-18T13:56:48;-0.60;99.90
15596;DHT22;7898;48.658;9.068;2022-12-18T13:59:18;-0.50;99.90
15596;DHT22;7898;48.658;9.068;2022-12-18T14:01:50;-0.60;99.90
15596;DHT22;7898;48.658;9.068;2022-12-18T14:04:20;-0.60;99.90
15596;DHT22;7898;48.658;9.068;2022-12-18T14:06:50;-0.60;99.90
15596;DHT22;7898;48.658;9.068;2022-12-18T14:09:21;-0.90;99.90
15596;DHT22;7898;48.658;9.068;2022-12-18T14:11:50;-1.00;99.90
15596;DHT22;7898;48.658;9.068;2022-12-18T14:14:18;-1.20;99.90
15596;DHT22;7898;48.658;9.068;2022-12-18T14:16:47;-1.30;99.90
15596;DHT22;7898;48.658;9.068;2022-12-18T14:19:16;-1.40;99.90
15596;DHT22;7898;48.658;9.068;2022-12-18T14:21:48;-1.50;99.90
15596;DHT22;7898;48.658;9.068;2022-12-18T14:24:17;-1.60;99.90
15596;DHT22;7898;48.658;9.068;2022-12-18T14:26:45;-1.70;99.90
15596;DHT22;7898;48.658;9.068;2022-12-18T14:29:21;-1.80;99.90
15596;DHT22;7898;48.658;9.068;2022-12-18T14:32:05;-1.90;99.90
15596;DHT22;7898;48.658;9.068;2022-12-18T14:34:32;-1.90;99.90
15596;DHT22;7898;48.658;9.068;2022-12-18T14:36:59;-2.00;99.90
15596;DHT22;7898;48.658;9.068;2022-12-18T14:39:26;-2.00;99.90
15596;DHT22;7898;48.658;9.068;2022-12-18T14:41:53;-2.10;99.90
15596;DHT22;7898;48.658;9.068;2022-12-18T14:44:20;-2.10;99.90
15596;DHT22;7898;48.658;9.068;2022-12-18T14:46:49;-2.20;99.90
15596;DHT22;7898;48.658;9.068;2022-12-18T14:49:24;-2.30;99.90
15596;DHT22;7898;48.658;9.068;2022-12-18T14:51:54;-2.30;99.90
15596;DHT22;7898;48.658;9.068;2022-12-18T14:54:22;-2.40;99.90
15596;DHT22;7898;48.658;9.068;2022-12-18T14:56:51;-2.30;99.90
15596;DHT22;7898;48.658;9.068;2022-12-18T14:59:24;-2.40;99.90
15596;DHT22;7898;48.658;9.068;2022-12-18T15:01:58;-2.50;99.90
15596;DHT22;7898;48.658;9.068;2022-12-18T15:04:28;-2.60;99.90
15596;DHT22;7898;48.658;9.068;2022-12-18T15:07:09;-2.40;99.90
15596;DHT22;7898;48.658;9.068;2022-12-18T15:09:38;-2.80;99.90
15596;DHT22;7898;48.658;9.068;2022-12-18T15:12:15;-2.90;99.90
15596;DHT22;7898;48.658;9.068;2022-12-18T15:14:43;-2.90;99.90
15596;DHT22;7898;48.658;9.068;2022-12-18T15:17:17;-3.00;99.90
15596;DHT22;7898;48.658;9.068;2022-12-18T15:19:47;-3.10;99.90
15596;DHT22;7898;48.658;9.068;2022-12-18T15:22:20;-3.20;99.90
15596;DHT22;7898;48.658;9.068;2022-12-18T15:24:48;-3.30;99.90
15596;DHT22;7898;48.658;9.068;2022-12-18T15:27:24;-3.30;99.90
15596;DHT22;7898;48.658;9.068;2022-12-18T15:30:21;-3.40;99.90
15596;DHT22;7898;48.658;9.068;2022-12-18T15:32:48;-3.40;99.90
15596;DHT22;7898;48.658;9.068;2022-12-18T15:35:19;-3.50;99.90
15596;DHT22;7898;48.658;9.068;2022-12-18T15:37:46;-3.50;99.90
15596;DHT22;7898;48.658;9.068;2022-12-18T15:40:15;-3.60;99.90
15596;DHT22;7898;48.658;9.068;2022-12-18T15:42:42;-3.70;99.90
15596;DHT22;7898;48.658;9.068;2022-12-18T15:45:27;-3.70;99.90
15596;DHT22;7898;48.658;9.068;2022-12-18T15:47:55;-3.80;99.90
15596;DHT22;7898;48.658;9.068;2022-12-18T15:50:23;-3.90;99.90
15596;DHT22;7898;48.658;9.068;2022-12-18T15:52:52;-4.00;99.90
15596;DHT22;7898;48.658;9.068;2022-12-18T15:55:21;-4.10;99.90
15596;DHT22;7898;48.658;9.068;2022-12-18T15:58:07;-4.10;99.90
15596;DHT22;7898;48.658;9.068;2022-12-18T16:00:36;-4.20;99.90
15596;DHT22;7898;48.658;9.068;2022-12-18T16:03:04;-3.90;99.90
15596;DHT22;7898;48.658;9.068;2022-12-18T16:05:33;-4.20;99.90